createdAt,value
2023-01-26T00:00:19.304Z,6.13
2023-01-26T00:01:21.810Z,6.19
2023-01-26T00:02:24.327Z,5.21
2023-01-26T00:03:26.766Z,6.20
2023-01-26T00:04:29.283Z,6.63
2023-01-26T00:05:31.553Z,7.26
2023-01-26T00:06:34.054Z,6.06
2023-01-26T00:07:36.301Z,7.55
2023-01-26T00:08:38.566Z,6.73
2023-01-26T00:09:40.881Z,8.28
2023-01-26T00:10:43.332Z,8.49
2023-01-26T00:11:45.968Z,7.37
2023-01-26T00:12:48.572Z,8.08
2023-01-26T00:13:51.395Z,7.14
2023-01-26T00:14:54.036Z,10.02
2023-01-26T00:15:56.607Z,10.97
2023-01-26T00:16:59.137Z,12.94
2023-01-26T00:18:01.818Z,11.98
2023-01-26T00:19:04.491Z,12.77
2023-01-26T00:20:07.101Z,10.83
2023-01-26T00:21:09.558Z,11.71
2023-01-26T00:22:12.331Z,12.15
2023-01-26T00:23:14.854Z,10.81
2023-01-26T00:24:18.017Z,11.48
2023-01-26T00:25:20.524Z,9.79
2023-01-26T00:26:23.168Z,11.40
2023-01-26T00:27:25.604Z,12.74
2023-01-26T00:28:28.079Z,13.36
2023-01-26T00:29:30.879Z,14.52
2023-01-26T00:30:33.617Z,14.56
2023-01-26T00:31:36.247Z,13.05
2023-01-26T00:32:38.703Z,14.36
2023-01-26T00:33:41.313Z,16.95
2023-01-26T00:34:44.115Z,13.98
2023-01-26T00:35:46.408Z,17.05
2023-01-26T00:36:48.663Z,14.95
2023-01-26T00:37:51.051Z,14.58
2023-01-26T00:38:53.413Z,14.52
2023-01-26T00:39:55.812Z,13.98
2023-01-26T00:40:58.029Z,15.58
2023-01-26T00:42:00.374Z,14.80
2023-01-26T00:43:02.653Z,16.95
2023-01-26T00:44:05.179Z,17.48
2023-01-26T00:45:07.908Z,16.16
2023-01-26T00:46:10.485Z,15.31
2023-01-26T00:47:13.143Z,15.75
2023-01-26T00:48:15.658Z,13.40
2023-01-26T00:49:18.189Z,14.84
2023-01-26T00:50:21.008Z,15.05
2023-01-26T00:51:23.598Z,14.79
2023-01-26T00:52:26.163Z,16.45
2023-01-26T00:53:28.608Z,11.57
2023-01-26T00:54:31.056Z,10.90
2023-01-26T00:55:33.650Z,11.52
2023-01-26T00:56:36.198Z,13.18
2023-01-26T00:57:38.500Z,12.51
2023-01-26T00:58:41.042Z,12.53
2023-01-26T00:59:43.248Z,12.17
2023-01-26T01:00:45.800Z,11.85
2023-01-26T01:01:48.107Z,11.72
2023-01-26T01:02:50.335Z,12.04
2023-01-26T01:03:52.660Z,11.08
2023-01-26T01:04:55.025Z,12.84
2023-01-26T01:05:57.586Z,13.81
2023-01-26T01:06:59.932Z,12.98
2023-01-26T01:08:02.223Z,11.19
2023-01-26T01:09:04.504Z,12.39
2023-01-26T01:10:06.835Z,13.47
2023-01-26T01:11:09.363Z,13.18
2023-01-26T01:12:11.702Z,10.38
2023-01-26T01:13:13.964Z,11.94
2023-01-26T01:14:16.239Z,12.39
2023-01-26T01:15:18.491Z,11.79
2023-01-26T01:16:20.909Z,11.75
2023-01-26T01:17:24.214Z,11.72
2023-01-26T01:18:26.436Z,11.87
2023-01-26T01:19:28.790Z,14.01
2023-01-26T01:20:31.004Z,12.22
2023-01-26T01:21:33.313Z,13.84
2023-01-26T01:22:35.615Z,11.35
2023-01-26T01:23:37.877Z,10.93
2023-01-26T01:24:40.163Z,12.68
2023-01-26T01:25:42.440Z,12.80
2023-01-26T01:26:44.850Z,11.12
2023-01-26T01:27:47.409Z,13.73
2023-01-26T01:28:49.824Z,11.15
2023-01-26T01:29:52.117Z,11.14
2023-01-26T01:30:54.535Z,12.25
2023-01-26T01:31:57.228Z,12.89
2023-01-26T01:32:59.616Z,13.49
2023-01-26T01:34:02.065Z,11.86
2023-01-26T01:35:04.309Z,11.72
2023-01-26T01:36:06.897Z,11.17
2023-01-26T01:37:09.529Z,14.55
2023-01-26T01:38:11.822Z,13.40
2023-01-26T01:39:14.052Z,13.24
2023-01-26T01:40:16.376Z,12.47
2023-01-26T01:41:18.769Z,12.84
2023-01-26T01:42:21.504Z,9.67
2023-01-26T01:43:23.745Z,11.04
2023-01-26T01:44:26.005Z,10.88
2023-01-26T01:45:28.574Z,9.93
2023-01-26T01:46:30.919Z,13.41
2023-01-26T01:47:33.347Z,12.84
2023-01-26T01:48:35.707Z,12.23
2023-01-26T01:49:37.917Z,11.63
2023-01-26T01:50:40.467Z,12.80
2023-01-26T01:51:42.758Z,9.97
2023-01-26T01:52:45.172Z,10.95
2023-01-26T01:53:47.526Z,11.73
2023-01-26T01:54:49.892Z,10.19
2023-01-26T01:55:52.173Z,14.07
2023-01-26T01:56:54.400Z,11.74
2023-01-26T01:57:56.874Z,13.04
2023-01-26T01:58:59.145Z,9.70
2023-01-26T02:00:01.536Z,10.18
2023-01-26T02:01:04.251Z,13.05
2023-01-26T02:02:06.891Z,13.79
2023-01-26T02:03:09.404Z,13.27
2023-01-26T02:04:12.303Z,12.29
2023-01-26T02:05:14.589Z,12.12
2023-01-26T02:06:16.891Z,11.67
2023-01-26T02:07:19.163Z,10.22
2023-01-26T02:08:21.593Z,11.23
2023-01-26T02:09:23.820Z,11.67
2023-01-26T02:10:26.229Z,11.64
2023-01-26T02:11:28.412Z,11.15
2023-01-26T02:12:30.770Z,12.91
2023-01-26T02:13:33.038Z,10.13
2023-01-26T02:14:35.228Z,11.69
2023-01-26T02:15:37.706Z,12.57
2023-01-26T02:16:40.147Z,11.54
2023-01-26T02:17:42.640Z,14.33
2023-01-26T02:18:44.957Z,12.67
2023-01-26T02:19:47.261Z,12.40
2023-01-26T02:20:49.518Z,10.61
2023-01-26T02:21:51.866Z,13.67
2023-01-26T02:22:54.127Z,11.60
2023-01-26T02:23:56.594Z,11.28
2023-01-26T02:24:59.230Z,13.33
2023-01-26T02:26:01.444Z,15.55
2023-01-26T02:27:03.816Z,13.31
2023-01-26T02:28:06.009Z,10.43
2023-01-26T02:29:08.394Z,12.16
2023-01-26T02:30:11.004Z,10.61
2023-01-26T02:31:13.559Z,12.85
2023-01-26T02:32:15.815Z,13.80
2023-01-26T02:33:18.285Z,13.57
2023-01-26T02:34:20.543Z,13.95
2023-01-26T02:35:22.796Z,12.53
2023-01-26T02:36:25.197Z,12.24
2023-01-26T02:37:27.512Z,13.61
2023-01-26T02:38:29.711Z,14.26
2023-01-26T02:39:31.952Z,10.67
2023-01-26T02:40:34.301Z,11.92
2023-01-26T02:41:36.465Z,10.30
2023-01-26T02:42:38.759Z,10.98
2023-01-26T02:43:41.031Z,12.24
2023-01-26T02:44:43.475Z,11.57
2023-01-26T02:45:45.693Z,13.22
2023-01-26T02:46:48.048Z,12.18
2023-01-26T02:47:50.401Z,11.27
2023-01-26T02:48:52.717Z,13.05
2023-01-26T02:49:55.351Z,11.98
2023-01-26T02:50:57.752Z,12.69
2023-01-26T02:52:00.245Z,13.86
2023-01-26T02:53:02.777Z,14.99
2023-01-26T02:54:04.986Z,15.08
2023-01-26T02:55:07.312Z,14.18
2023-01-26T02:56:09.668Z,12.07
2023-01-26T02:57:11.987Z,13.13
2023-01-26T02:58:14.395Z,11.52
2023-01-26T02:59:16.622Z,12.95
2023-01-26T03:00:19.147Z,13.65
2023-01-26T03:01:21.381Z,12.17
2023-01-26T03:02:23.784Z,14.35
2023-01-26T03:03:26.046Z,12.84
2023-01-26T03:04:28.645Z,11.57
2023-01-26T03:05:31.168Z,13.89
2023-01-26T03:06:33.555Z,12.90
2023-01-26T03:07:35.858Z,10.71
2023-01-26T03:08:38.136Z,12.25
2023-01-26T03:09:40.434Z,12.43
2023-01-26T03:10:43.240Z,10.71
2023-01-26T03:11:45.455Z,10.08
2023-01-26T03:12:48.080Z,11.17
2023-01-26T03:13:50.368Z,12.74
2023-01-26T03:14:52.671Z,13.34
2023-01-26T03:15:55.155Z,14.78
2023-01-26T03:16:57.505Z,12.23
2023-01-26T03:17:59.729Z,12.68
2023-01-26T03:19:02.266Z,12.16
2023-01-26T03:20:04.621Z,12.63
2023-01-26T03:21:06.861Z,14.10
2023-01-26T03:22:09.213Z,12.66
2023-01-26T03:23:11.484Z,15.74
2023-01-26T03:24:14.041Z,10.53
2023-01-26T03:25:16.368Z,12.40
2023-01-26T03:26:18.627Z,13.08
2023-01-26T03:27:20.778Z,12.65
2023-01-26T03:28:23.205Z,13.09
2023-01-26T03:29:25.539Z,12.26
2023-01-26T03:30:27.763Z,12.87
2023-01-26T03:31:30.086Z,13.48
2023-01-26T03:32:32.711Z,11.32
2023-01-26T03:33:34.953Z,10.90
2023-01-26T03:34:37.482Z,11.90
2023-01-26T03:35:39.801Z,11.47
2023-01-26T03:36:42.471Z,11.73
2023-01-26T03:37:45.092Z,14.44
2023-01-26T03:38:47.677Z,12.45
2023-01-26T03:39:50.345Z,11.08
2023-01-26T03:40:52.555Z,12.63
2023-01-26T03:41:55.045Z,13.17
2023-01-26T03:42:57.288Z,12.30
2023-01-26T03:43:59.901Z,10.92
2023-01-26T03:45:02.147Z,12.64
2023-01-26T03:46:04.740Z,12.74
2023-01-26T03:47:07.276Z,12.55
2023-01-26T03:48:09.704Z,11.78
2023-01-26T03:49:11.924Z,15.24
2023-01-26T03:50:14.153Z,10.84
2023-01-26T03:51:16.357Z,11.54
2023-01-26T03:52:18.933Z,11.44
2023-01-26T03:53:21.527Z,14.33
2023-01-26T03:54:23.845Z,11.12
2023-01-26T03:55:26.117Z,15.08
2023-01-26T03:56:28.312Z,12.80
2023-01-26T03:57:30.878Z,13.97
2023-01-26T03:58:33.419Z,13.31
2023-01-26T03:59:36.102Z,13.19
2023-01-26T04:00:38.366Z,14.38
2023-01-26T04:01:40.919Z,14.82
2023-01-26T04:02:43.479Z,10.19
2023-01-26T04:03:45.685Z,13.62
2023-01-26T04:04:48.057Z,12.71
2023-01-26T04:05:50.330Z,11.83
2023-01-26T04:06:52.620Z,14.00
2023-01-26T04:07:54.993Z,16.92
2023-01-26T04:08:57.262Z,16.85
2023-01-26T04:09:59.521Z,13.93
2023-01-26T04:11:01.914Z,13.76
2023-01-26T04:12:04.229Z,18.00
2023-01-26T04:13:06.507Z,19.44
2023-01-26T04:14:08.816Z,16.73
2023-01-26T04:15:11.085Z,16.35
2023-01-26T04:16:13.826Z,14.86
2023-01-26T04:17:16.169Z,19.17
2023-01-26T04:18:18.619Z,17.35
2023-01-26T04:19:20.968Z,16.77
2023-01-26T04:20:23.639Z,18.12
2023-01-26T04:21:25.854Z,17.98
2023-01-26T04:22:28.268Z,16.77
2023-01-26T04:23:30.803Z,18.73
2023-01-26T04:24:33.085Z,17.33
2023-01-26T04:25:35.532Z,19.04
2023-01-26T04:26:37.817Z,18.76
2023-01-26T04:27:40.032Z,17.07
2023-01-26T04:28:42.813Z,20.00
2023-01-26T04:29:45.333Z,17.58
2023-01-26T04:30:47.908Z,19.98
2023-01-26T04:31:50.772Z,17.97
2023-01-26T04:32:53.111Z,15.83
2023-01-26T04:33:55.763Z,22.75
2023-01-26T04:34:58.095Z,19.01
2023-01-26T04:36:00.284Z,19.57
2023-01-26T04:37:02.658Z,16.87
2023-01-26T04:38:04.877Z,16.93
2023-01-26T04:39:07.105Z,17.86
2023-01-26T04:40:09.639Z,17.61
2023-01-26T04:41:12.146Z,17.83
2023-01-26T04:42:14.598Z,18.64
2023-01-26T04:43:16.857Z,22.50
2023-01-26T04:44:19.136Z,15.85
2023-01-26T04:45:21.665Z,19.37
2023-01-26T04:46:24.257Z,18.18
2023-01-26T04:47:29.068Z,17.31
2023-01-26T04:48:30.498Z,18.39
2023-01-26T04:49:32.836Z,17.91
2023-01-26T04:50:35.215Z,20.81
2023-01-26T04:51:37.468Z,16.53
2023-01-26T04:52:39.849Z,19.08
2023-01-26T04:53:42.076Z,17.34
2023-01-26T04:54:44.326Z,16.96
2023-01-26T04:55:46.656Z,20.40
2023-01-26T04:56:48.831Z,19.42
2023-01-26T04:57:51.060Z,16.59
2023-01-26T04:58:53.584Z,19.32
2023-01-26T04:59:56.496Z,17.57
2023-01-26T05:00:58.889Z,18.82
2023-01-26T05:02:01.117Z,17.69
2023-01-26T05:03:03.273Z,17.89
2023-01-26T05:04:05.586Z,19.26
2023-01-26T05:05:07.995Z,16.87
2023-01-26T05:06:10.247Z,18.28
2023-01-26T05:07:12.419Z,15.47
2023-01-26T05:08:14.788Z,16.62
2023-01-26T05:09:17.092Z,18.48
2023-01-26T05:10:19.533Z,20.21
2023-01-26T05:11:22.112Z,16.71
2023-01-26T05:12:24.586Z,16.75
2023-01-26T05:13:27.144Z,15.07
2023-01-26T05:14:29.638Z,18.05
2023-01-26T05:15:32.338Z,15.45
2023-01-26T05:16:34.909Z,16.02
2023-01-26T05:17:37.668Z,17.95
2023-01-26T05:18:40.280Z,18.75
2023-01-26T05:19:42.757Z,15.31
2023-01-26T05:20:45.484Z,13.95
2023-01-26T05:21:47.871Z,16.17
2023-01-26T05:22:50.145Z,14.98
2023-01-26T05:23:52.723Z,14.79
2023-01-26T05:24:55.388Z,12.28
2023-01-26T05:25:57.953Z,12.48
2023-01-26T05:27:00.198Z,15.41
2023-01-26T05:28:02.634Z,15.54
2023-01-26T05:29:05.105Z,12.94
2023-01-26T05:30:07.461Z,13.89
2023-01-26T05:31:09.943Z,16.78
2023-01-26T05:32:12.340Z,17.70
2023-01-26T05:33:14.969Z,17.51
2023-01-26T05:34:17.264Z,15.46
2023-01-26T05:35:19.716Z,17.02
2023-01-26T05:36:22.095Z,17.47
2023-01-26T05:37:24.395Z,16.29
2023-01-26T05:38:26.698Z,12.07
2023-01-26T05:39:28.997Z,14.58
2023-01-26T05:40:31.297Z,16.42
2023-01-26T05:41:33.749Z,17.99
2023-01-26T05:42:36.122Z,14.25
2023-01-26T05:43:38.369Z,15.86
2023-01-26T05:44:40.705Z,15.02
2023-01-26T05:45:43.048Z,17.09
2023-01-26T05:46:45.567Z,19.02
2023-01-26T05:47:48.190Z,20.89
2023-01-26T05:48:50.504Z,19.63
2023-01-26T05:49:52.837Z,15.30
2023-01-26T05:50:55.534Z,19.88
2023-01-26T05:51:58.176Z,19.81
2023-01-26T05:53:00.529Z,18.91
2023-01-26T05:54:02.922Z,16.77
2023-01-26T05:55:05.679Z,18.07
2023-01-26T05:56:08.281Z,15.64
2023-01-26T05:57:11.139Z,15.01
2023-01-26T05:58:13.382Z,14.97
2023-01-26T05:59:15.816Z,16.64
2023-01-26T06:00:18.397Z,16.28
2023-01-26T06:01:20.635Z,14.48
2023-01-26T06:02:23.060Z,16.83
2023-01-26T06:03:25.306Z,17.16
2023-01-26T06:04:27.803Z,14.38
2023-01-26T06:05:30.395Z,13.99
2023-01-26T06:06:32.921Z,17.29
2023-01-26T06:07:35.421Z,13.65
2023-01-26T06:08:37.757Z,15.41
2023-01-26T06:09:40.001Z,17.23
2023-01-26T06:10:42.626Z,17.36
2023-01-26T06:11:45.303Z,17.32
2023-01-26T06:12:47.697Z,17.78
2023-01-26T06:13:49.906Z,15.98
2023-01-26T06:14:52.603Z,15.85
2023-01-26T06:15:55.517Z,14.62
2023-01-26T06:16:57.791Z,18.11
2023-01-26T06:18:00.239Z,15.45
2023-01-26T06:19:02.536Z,17.13
2023-01-26T06:20:05.129Z,16.41
2023-01-26T06:21:07.447Z,17.22
2023-01-26T06:22:09.985Z,17.06
2023-01-26T06:23:12.517Z,18.58
2023-01-26T06:24:15.225Z,19.37
2023-01-26T06:25:17.898Z,16.33
2023-01-26T06:26:20.170Z,17.93
2023-01-26T06:27:22.574Z,18.56
2023-01-26T06:28:25.469Z,17.72
2023-01-26T06:29:27.987Z,19.42
2023-01-26T06:30:30.458Z,20.25
2023-01-26T06:31:33.032Z,16.62
2023-01-26T06:32:35.390Z,22.99
2023-01-26T06:33:37.821Z,18.49
2023-01-26T06:34:40.050Z,17.77
2023-01-26T06:35:42.323Z,20.53
2023-01-26T06:36:44.835Z,17.96
2023-01-26T06:37:47.078Z,17.61
2023-01-26T06:38:49.409Z,17.19
2023-01-26T06:39:51.620Z,18.57
2023-01-26T06:40:53.864Z,16.48
2023-01-26T06:41:56.123Z,14.43
2023-01-26T06:42:58.818Z,14.60
2023-01-26T06:44:01.485Z,13.72
2023-01-26T06:45:03.840Z,14.68
2023-01-26T06:46:06.124Z,14.28
2023-01-26T06:47:08.308Z,11.93
2023-01-26T06:48:10.779Z,14.63
2023-01-26T06:49:13.603Z,13.03
2023-01-26T06:50:16.136Z,16.04
2023-01-26T06:51:18.579Z,19.29
2023-01-26T06:52:20.842Z,13.62
2023-01-26T06:53:23.302Z,15.62
2023-01-26T06:54:25.989Z,17.04
2023-01-26T06:55:28.444Z,13.15
2023-01-26T06:56:31.065Z,16.47
2023-01-26T06:57:33.718Z,17.78
2023-01-26T06:58:35.945Z,14.33
2023-01-26T06:59:46.761Z,13.44
2023-01-26T07:00:49.492Z,19.95
2023-01-26T07:01:52.606Z,13.72
2023-01-26T07:02:55.284Z,15.05
2023-01-26T07:03:58.266Z,12.68
2023-01-26T07:05:01.563Z,15.37
2023-01-26T07:06:04.315Z,13.47
2023-01-26T07:07:07.165Z,12.98
2023-01-26T07:08:09.954Z,16.05
2023-01-26T07:09:12.635Z,14.98
2023-01-26T07:10:15.756Z,14.65
2023-01-26T07:11:18.683Z,13.42
2023-01-26T07:12:21.669Z,14.01
2023-01-26T07:13:24.539Z,13.13
2023-01-26T07:14:27.163Z,13.67
2023-01-26T07:15:30.455Z,13.60
2023-01-26T07:16:33.984Z,14.26
2023-01-26T07:17:36.955Z,12.92
2023-01-26T07:18:39.945Z,13.74
2023-01-26T07:19:43.010Z,13.68
2023-01-26T07:20:46.517Z,13.46
2023-01-26T07:21:49.384Z,12.54
2023-01-26T07:22:52.155Z,14.53
2023-01-26T07:23:54.947Z,14.28
2023-01-26T07:24:57.917Z,12.66
2023-01-26T07:26:01.078Z,14.77
2023-01-26T07:27:04.467Z,14.14
2023-01-26T07:28:07.550Z,13.32
2023-01-26T07:29:10.331Z,12.96
2023-01-26T07:30:13.260Z,13.58
2023-01-26T07:31:16.851Z,14.08
2023-01-26T07:32:20.067Z,13.39
2023-01-26T07:33:23.099Z,17.40
2023-01-26T07:34:25.923Z,14.27
2023-01-26T07:35:28.610Z,11.43
2023-01-26T07:36:32.027Z,13.48
2023-01-26T07:37:35.054Z,14.91
2023-01-26T07:38:38.162Z,14.89
2023-01-26T07:39:40.800Z,15.45
2023-01-26T07:40:43.996Z,17.05
2023-01-26T07:41:47.301Z,14.18
2023-01-26T07:42:50.257Z,15.45
2023-01-26T07:43:52.940Z,16.31
2023-01-26T07:44:55.749Z,14.52
2023-01-26T07:45:58.889Z,14.38
2023-01-26T07:47:01.976Z,15.86
2023-01-26T07:48:04.890Z,14.93
2023-01-26T07:49:07.645Z,13.94
2023-01-26T07:50:10.647Z,15.90
2023-01-26T07:51:13.680Z,15.63
2023-01-26T07:52:16.429Z,16.68
2023-01-26T07:53:19.281Z,15.39
2023-01-26T07:54:21.871Z,14.65
2023-01-26T07:55:24.740Z,13.03
2023-01-26T07:56:27.636Z,14.47
2023-01-26T07:57:30.285Z,14.93
2023-01-26T07:58:33.279Z,16.47
2023-01-26T07:59:36.255Z,12.15
2023-01-26T08:00:38.925Z,14.93
2023-01-26T08:01:41.872Z,16.51
2023-01-26T08:02:44.746Z,13.01
2023-01-26T08:03:47.741Z,13.77
2023-01-26T08:04:50.727Z,12.79
2023-01-26T08:05:53.604Z,14.65
2023-01-26T08:06:56.478Z,14.60
2023-01-26T08:07:59.599Z,16.65
2023-01-26T08:09:02.723Z,19.49
2023-01-26T08:10:05.606Z,16.12
2023-01-26T08:11:08.797Z,12.36
2023-01-26T08:12:12.201Z,13.85
2023-01-26T08:13:18.979Z,12.39
2023-01-26T08:14:19.354Z,15.36
2023-01-26T08:15:22.226Z,12.14
2023-01-26T08:16:25.095Z,13.71
2023-01-26T08:17:28.184Z,12.82
2023-01-26T08:18:31.271Z,12.20
2023-01-26T08:19:34.136Z,13.30
2023-01-26T08:20:37.222Z,12.54
2023-01-26T08:21:40.102Z,13.40
2023-01-26T08:22:43.000Z,16.24
2023-01-26T08:23:45.737Z,17.29
2023-01-26T08:24:48.534Z,21.27
2023-01-26T08:25:51.210Z,17.50
2023-01-26T08:26:54.166Z,17.27
2023-01-26T08:27:57.038Z,16.73
2023-01-26T08:29:00.118Z,15.22
2023-01-26T08:30:03.099Z,19.88
2023-01-26T08:31:05.744Z,16.93
2023-01-26T08:32:09.029Z,13.42
2023-01-26T08:33:11.613Z,14.65
2023-01-26T08:34:14.493Z,15.29
2023-01-26T08:35:17.568Z,13.99
2023-01-26T08:36:22.531Z,14.28
2023-01-26T08:37:25.363Z,14.32
2023-01-26T08:38:28.131Z,12.95
2023-01-26T08:39:31.541Z,12.38
2023-01-26T08:40:34.700Z,14.25
2023-01-26T08:41:37.580Z,14.28
2023-01-26T08:42:40.447Z,15.59
2023-01-26T08:43:43.119Z,14.93
2023-01-26T08:44:46.005Z,13.94
2023-01-26T08:45:48.855Z,15.75
2023-01-26T08:46:51.645Z,17.78
2023-01-26T08:47:54.438Z,17.50
2023-01-26T08:48:59.354Z,18.71
2023-01-26T08:50:01.395Z,18.79
2023-01-26T08:51:04.172Z,20.51
2023-01-26T08:52:06.938Z,17.67
2023-01-26T08:53:09.923Z,22.45
2023-01-26T08:54:12.448Z,21.13
2023-01-26T08:55:14.802Z,20.30
2023-01-26T08:56:17.368Z,24.95
2023-01-26T08:57:19.870Z,22.24
2023-01-26T08:58:22.097Z,20.85
2023-01-26T08:59:24.422Z,22.98
2023-01-26T09:00:27.014Z,17.91
2023-01-26T09:01:29.728Z,20.48
2023-01-26T09:02:32.250Z,20.62
2023-01-26T09:03:34.858Z,20.75
2023-01-26T09:04:37.154Z,21.62
2023-01-26T09:05:39.565Z,20.61
2023-01-26T09:06:42.122Z,21.37
2023-01-26T09:07:44.665Z,16.34
2023-01-26T09:08:46.999Z,17.67
2023-01-26T09:09:49.348Z,16.35
2023-01-26T09:10:51.708Z,14.15
2023-01-26T09:11:54.051Z,19.59
2023-01-26T09:12:56.259Z,19.41
2023-01-26T09:13:58.556Z,22.40
2023-01-26T09:15:00.762Z,20.82
2023-01-26T09:16:03.186Z,21.31
2023-01-26T09:17:05.404Z,25.68
2023-01-26T09:18:07.645Z,28.10
2023-01-26T09:19:09.818Z,28.17
2023-01-26T09:20:12.680Z,21.98
2023-01-26T09:21:15.436Z,23.60
2023-01-26T09:22:17.991Z,31.14
2023-01-26T09:23:20.271Z,27.83
2023-01-26T09:24:22.573Z,24.86
2023-01-26T09:25:25.217Z,23.87
2023-01-26T09:26:27.723Z,27.97
2023-01-26T09:27:30.032Z,28.04
2023-01-26T09:28:32.347Z,25.10
2023-01-26T09:29:34.883Z,24.61
2023-01-26T09:30:37.551Z,25.06
2023-01-26T09:31:40.371Z,32.26
2023-01-26T09:32:42.678Z,32.02
2023-01-26T09:33:45.543Z,29.99
2023-01-26T09:34:48.179Z,24.55
2023-01-26T09:35:50.461Z,24.93
2023-01-26T09:36:53.354Z,26.96
2023-01-26T09:37:55.609Z,27.48
2023-01-26T09:38:58.262Z,28.46
2023-01-26T09:40:00.879Z,26.28
2023-01-26T09:41:03.585Z,25.69
2023-01-26T09:42:06.209Z,24.18
2023-01-26T09:43:08.499Z,22.43
2023-01-26T09:44:10.730Z,26.12
2023-01-26T09:45:13.463Z,22.93
2023-01-26T09:46:15.959Z,22.32
2023-01-26T09:47:18.468Z,22.45
2023-01-26T09:48:20.665Z,26.91
2023-01-26T09:49:22.878Z,22.68
2023-01-26T09:50:25.098Z,21.26
2023-01-26T09:51:27.314Z,25.21
2023-01-26T09:52:29.625Z,28.17
2023-01-26T09:53:31.862Z,24.31
2023-01-26T09:54:34.256Z,25.43
2023-01-26T09:55:36.960Z,23.98
2023-01-26T09:56:39.717Z,20.40
2023-01-26T09:57:42.009Z,22.78
2023-01-26T09:58:44.253Z,24.87
2023-01-26T09:59:46.603Z,22.87
2023-01-26T10:00:48.896Z,20.43
2023-01-26T10:01:51.141Z,22.11
2023-01-26T10:02:53.583Z,25.58
2023-01-26T10:03:56.313Z,27.96
2023-01-26T10:04:58.531Z,23.78
2023-01-26T10:06:00.867Z,23.50
2023-01-26T10:07:03.177Z,21.37
2023-01-26T10:08:05.766Z,22.29
2023-01-26T10:09:08.117Z,22.02
2023-01-26T10:10:10.435Z,22.68
2023-01-26T10:11:12.879Z,22.92
2023-01-26T10:12:15.553Z,31.93
2023-01-26T10:13:18.104Z,24.31
2023-01-26T10:14:20.537Z,23.77
2023-01-26T10:15:23.213Z,24.98
2023-01-26T10:16:25.712Z,28.98
2023-01-26T10:17:28.191Z,24.49
2023-01-26T10:18:30.651Z,26.32
2023-01-26T10:19:33.271Z,24.84
2023-01-26T10:20:35.827Z,24.68
2023-01-26T10:21:38.119Z,26.83
2023-01-26T10:22:40.316Z,26.82
2023-01-26T10:23:42.859Z,24.34
2023-01-26T10:24:45.550Z,23.88
2023-01-26T10:25:48.157Z,27.15
2023-01-26T10:26:50.700Z,28.95
2023-01-26T10:27:53.039Z,30.25
2023-01-26T10:28:55.470Z,20.32
2023-01-26T10:29:57.934Z,27.80
2023-01-26T10:31:00.499Z,26.68
2023-01-26T10:32:02.872Z,22.98
2023-01-26T10:33:05.335Z,25.68
2023-01-26T10:34:08.009Z,25.57
2023-01-26T10:35:10.926Z,26.74
2023-01-26T10:36:13.678Z,31.04
2023-01-26T10:37:16.374Z,43.64
2023-01-26T10:38:18.871Z,42.91
2023-01-26T10:39:21.461Z,47.44
2023-01-26T10:40:23.663Z,51.97
2023-01-26T10:41:26.359Z,48.80
2023-01-26T10:42:28.921Z,45.20
2023-01-26T10:43:31.489Z,47.18
2023-01-26T10:44:33.754Z,55.04
2023-01-26T10:45:36.372Z,52.62
2023-01-26T10:46:38.994Z,51.95
2023-01-26T10:47:41.647Z,56.13
2023-01-26T10:48:44.240Z,50.66
2023-01-26T10:49:46.619Z,56.76
2023-01-26T10:50:48.957Z,51.19
2023-01-26T10:51:51.639Z,57.90
2023-01-26T10:52:55.192Z,52.95
2023-01-26T10:53:57.496Z,54.07
2023-01-26T10:54:59.754Z,58.55
2023-01-26T10:56:02.103Z,53.20
2023-01-26T10:57:04.506Z,63.42
2023-01-26T10:58:06.787Z,51.29
2023-01-26T10:59:09.060Z,57.45
2023-01-26T11:00:11.417Z,63.98
2023-01-26T11:01:13.777Z,57.80
2023-01-26T11:02:16.140Z,55.96
2023-01-26T11:03:18.333Z,52.03
2023-01-26T11:04:20.538Z,64.37
2023-01-26T11:05:22.964Z,62.34
2023-01-26T11:06:25.285Z,53.61
2023-01-26T11:07:27.520Z,51.58
2023-01-26T11:08:29.784Z,51.90
2023-01-26T11:09:32.039Z,52.45
2023-01-26T11:10:34.416Z,53.36
2023-01-26T11:11:36.887Z,46.82
2023-01-26T11:12:39.294Z,50.83
2023-01-26T11:13:41.667Z,55.20
2023-01-26T11:14:43.954Z,58.48
2023-01-26T11:15:46.214Z,61.25
2023-01-26T11:16:48.590Z,62.09
2023-01-26T11:17:50.832Z,52.20
2023-01-26T11:18:53.109Z,48.18
2023-01-26T11:19:55.367Z,67.23
2023-01-26T11:20:57.688Z,60.17
2023-01-26T11:21:59.929Z,63.29
2023-01-26T11:23:02.171Z,52.44
2023-01-26T11:24:04.484Z,52.07
2023-01-26T11:25:06.740Z,60.52
2023-01-26T11:26:09.392Z,64.27
2023-01-26T11:27:11.927Z,61.15
2023-01-26T11:28:14.178Z,66.55
2023-01-26T11:29:16.436Z,60.54
2023-01-26T11:30:18.944Z,61.23
2023-01-26T11:31:21.511Z,67.60
2023-01-26T11:32:23.796Z,66.62
2023-01-26T11:33:26.151Z,64.78
2023-01-26T11:34:28.620Z,62.62
2023-01-26T11:35:30.939Z,64.05
2023-01-26T11:36:33.644Z,65.66
2023-01-26T11:37:35.908Z,51.78
2023-01-26T11:38:38.233Z,66.97
2023-01-26T11:39:40.794Z,64.77
2023-01-26T11:40:43.059Z,69.10
2023-01-26T11:41:45.738Z,66.08
2023-01-26T11:42:48.250Z,63.91
2023-01-26T11:43:50.827Z,64.58
2023-01-26T11:44:53.157Z,62.49
2023-01-26T11:45:57.162Z,75.67
2023-01-26T11:46:59.615Z,70.07
2023-01-26T11:48:01.969Z,73.87
2023-01-26T11:49:04.256Z,65.65
2023-01-26T11:50:06.548Z,60.00
2023-01-26T11:51:08.783Z,58.97
2023-01-26T11:52:11.364Z,65.97
2023-01-26T11:53:13.512Z,71.59
2023-01-26T11:54:16.080Z,70.72
2023-01-26T11:55:18.664Z,67.85
2023-01-26T11:56:21.242Z,69.93
2023-01-26T11:57:23.715Z,64.11
2023-01-26T11:58:26.164Z,66.78
2023-01-26T11:59:28.689Z,62.68
2023-01-26T12:00:34.260Z,62.12
2023-01-26T12:01:36.488Z,65.06
2023-01-26T12:02:39.388Z,68.91
2023-01-26T12:03:41.715Z,59.98
2023-01-26T12:04:44.311Z,51.58
2023-01-26T12:05:46.781Z,59.57
2023-01-26T12:06:49.056Z,63.97
2023-01-26T12:07:51.718Z,66.31
2023-01-26T12:08:54.304Z,69.93
2023-01-26T12:09:56.917Z,68.75
2023-01-26T12:10:59.161Z,52.26
2023-01-26T12:12:01.547Z,64.99
2023-01-26T12:13:04.340Z,66.64
2023-01-26T12:14:06.592Z,64.40
2023-01-26T12:15:08.968Z,63.81
2023-01-26T12:16:11.578Z,62.52
2023-01-26T12:17:18.470Z,65.10
2023-01-26T12:18:18.369Z,63.14
2023-01-26T12:19:20.835Z,62.76
2023-01-26T12:20:23.398Z,64.48
2023-01-26T12:21:25.711Z,59.48
2023-01-26T12:22:27.953Z,61.31
2023-01-26T12:23:30.649Z,65.14
2023-01-26T12:25:01.010Z,64.60
2023-01-26T12:25:37.615Z,62.99
2023-01-26T12:26:40.253Z,61.02
2023-01-26T12:27:42.753Z,56.89
2023-01-26T12:28:45.445Z,58.74
2023-01-26T12:29:48.149Z,61.86
2023-01-26T12:30:50.795Z,59.51
2023-01-26T12:31:53.080Z,53.84
2023-01-26T12:32:55.564Z,53.91
2023-01-26T12:33:58.305Z,57.80
2023-01-26T12:35:00.876Z,57.53
2023-01-26T12:36:03.073Z,55.39
2023-01-26T12:37:05.264Z,55.80
2023-01-26T12:38:17.639Z,56.37
2023-01-26T12:39:11.848Z,56.45
2023-01-26T12:40:14.123Z,59.31
2023-01-26T12:41:16.431Z,52.15
2023-01-26T12:42:18.723Z,49.47
2023-01-26T12:43:21.270Z,57.58
2023-01-26T12:44:23.829Z,56.64
2023-01-26T12:45:26.109Z,56.31
2023-01-26T12:46:28.482Z,50.92
2023-01-26T12:47:30.782Z,60.12
2023-01-26T12:48:33.161Z,51.21
2023-01-26T12:49:35.797Z,53.15
2023-01-26T12:50:38.207Z,53.91
2023-01-26T12:51:40.381Z,54.66
2023-01-26T12:52:42.584Z,50.31
2023-01-26T12:53:45.039Z,50.79
2023-01-26T12:54:47.662Z,57.98
2023-01-26T12:55:50.097Z,58.05
2023-01-26T12:56:52.423Z,51.78
2023-01-26T12:57:54.706Z,50.73
2023-01-26T12:58:57.272Z,51.99
2023-01-26T12:59:59.787Z,50.42
2023-01-26T13:01:02.294Z,52.83
2023-01-26T13:02:04.643Z,49.07
2023-01-26T13:03:07.010Z,47.23
2023-01-26T13:04:09.451Z,45.61
2023-01-26T13:05:12.415Z,53.16
2023-01-26T13:06:14.625Z,47.61
2023-01-26T13:07:16.913Z,47.72
2023-01-26T13:08:19.122Z,43.48
2023-01-26T13:09:21.581Z,49.43
2023-01-26T13:10:24.028Z,43.55
2023-01-26T13:11:26.453Z,47.64
2023-01-26T13:12:28.804Z,44.05
2023-01-26T13:13:31.078Z,48.05
2023-01-26T13:14:33.743Z,55.62
2023-01-26T13:15:36.399Z,52.63
2023-01-26T13:16:39.021Z,54.17
2023-01-26T13:17:41.341Z,47.35
2023-01-26T13:18:43.768Z,48.52
2023-01-26T13:19:46.361Z,44.44
2023-01-26T13:20:49.039Z,42.20
2023-01-26T13:21:51.325Z,45.10
2023-01-26T13:22:53.553Z,44.42
2023-01-26T13:23:55.918Z,48.96
2023-01-26T13:24:58.462Z,49.56
2023-01-26T13:26:09.559Z,43.61